Time;durP1;ratioP1;P1;durP2;ratioP2;P2;SDS_P1;SDS_P2;PMS_P1;PMS_P2;Temp;Humidity;BMP_temperature;BMP_pressure;BME280_temperature;BME280_humidity;BME280_pressure;Samples;Min_cycle;Max_cycle;Signal;HPM_P1;HPM_P2
2022/12/25 00:02:25;;;;;;;;;;;;;;;16.21;56.82;100718.22;7260192;19;154749;-58
2022/12/25 00:04:52;;;;;;;;;;;;;;;16.21;57.03;100713.47;7249761;19;155013;-58
2022/12/25 00:07:19;;;;;;;;;;;;;;;16.23;56.59;100713.16;7250475;19;154576;-58
2022/12/25 00:09:46;;;;;;;;;;;;;;;16.20;56.88;100714.59;7249762;19;154500;-58
2022/12/25 00:12:13;;;;;;;;;;;;;;;16.20;56.91;100711.78;7248455;19;154386;-58
2022/12/25 00:14:39;;;;;;;;;;;;;;;16.19;56.91;100710.13;7253279;19;153329;-58
2022/12/25 00:17:06;;;;;;;;;;;;;;;16.19;56.91;100717.66;7252681;19;153559;-58
2022/12/25 00:19:33;;;;;;;;;;;;;;;16.19;56.92;100721.28;7251121;19;153659;-58
2022/12/25 00:22:00;;;;;;;;;;;;;;;16.19;56.68;100709.28;7248445;19;155354;-58
2022/12/25 00:24:27;;;;;;;;;;;;;;;16.18;56.81;100714.03;7257777;19;153641;-58
2022/12/25 00:26:54;;;;;;;;;;;;;;;16.18;56.93;100708.44;7252998;19;153692;-58
2022/12/25 00:29:20;;;;;;;;;;;;;;;16.17;57.09;100708.75;7250388;19;155145;-58
2022/12/25 00:31:47;;;;;;;;;;;;;;;16.17;56.68;100708.75;7247307;19;155225;-58
2022/12/25 00:34:14;;;;;;;;;;;;;;;16.16;56.91;100707.06;7249660;19;152212;-58
2022/12/25 00:36:41;;;;;;;;;;;;;;;16.16;56.82;100709.88;7247566;19;154675;-58
2022/12/25 00:39:08;;;;;;;;;;;;;;;16.15;56.94;100702.63;7251898;19;154104;-58
2022/12/25 00:44:06;;;;;;;;;;;;;;;16.14;56.86;100709.31;7249628;19;152239;-58
2022/12/25 00:46:33;;;;;;;;;;;;;;;16.14;57.05;100707.34;7258879;19;152943;-58
2022/12/25 00:49:00;;;;;;;;;;;;;;;16.13;56.96;100704.84;7248568;19;153341;-58
2022/12/25 00:51:27;;;;;;;;;;;;;;;16.14;56.89;100695.38;7243643;19;152945;-58
2022/12/25 00:53:53;;;;;;;;;;;;;;;16.13;56.89;100700.09;7245816;19;153142;-58
2022/12/25 00:56:20;;;;;;;;;;;;;;;16.12;56.96;100690.09;7251083;19;154636;-58
2022/12/25 00:58:47;;;;;;;;;;;;;;;16.12;57.30;100690.09;7250938;19;155291;-58
2022/12/25 01:01:14;;;;;;;;;;;;;;;16.11;57.02;100677.28;7251885;19;153882;-58
2022/12/25 01:03:41;;;;;;;;;;;;;;;16.13;57.06;100674.19;7253759;19;154103;-58
2022/12/25 01:06:09;;;;;;;;;;;;;;;16.12;56.94;100673.38;7254440;19;154728;-58
2022/12/25 01:08:37;;;;;;;;;;;;;;;16.12;57.01;100670.59;7249583;19;154651;-58
2022/12/25 01:11:06;;;;;;;;;;;;;;;16.12;56.80;100666.97;7248723;19;153975;-57
2022/12/25 01:13:34;;;;;;;;;;;;;;;16.11;57.27;100666.13;7251010;19;153961;-58
2022/12/25 01:16:04;;;;;;;;;;;;;;;16.11;57.04;100663.34;7251097;19;153482;-58
2022/12/25 01:18:31;;;;;;;;;;;;;;;16.11;57.16;100663.34;7249124;19;154589;-58
2022/12/25 01:21:04;;;;;;;;;;;;;;;16.10;56.73;100656.09;7247886;19;152231;-58
2022/12/25 01:23:31;;;;;;;;;;;;;;;16.10;57.16;100655.25;7248082;19;153069;-58
2022/12/25 01:26:02;;;;;;;;;;;;;;;16.09;57.02;100654.41;7250518;19;154650;-58
2022/12/25 01:28:29;;;;;;;;;;;;;;;16.08;57.24;100655.53;7255431;19;153413;-58
2022/12/25 01:30:56;;;;;;;;;;;;;;;16.09;57.19;100654.41;7249636;19;154374;-58
2022/12/25 01:33:23;;;;;;;;;;;;;;;16.09;57.30;100656.38;7249963;19;153978;-58
2022/12/25 01:35:49;;;;;;;;;;;;;;;16.09;57.06;100653.59;7247839;19;154543;-58
2022/12/25 01:38:16;;;;;;;;;;;;;;;16.07;57.11;100653.88;7248998;19;153391;-58
2022/12/25 01:40:43;;;;;;;;;;;;;;;16.08;56.99;100658.31;7250001;19;153976;-58
2022/12/25 01:43:21;;;;;;;;;;;;;;;16.08;56.98;100655.53;7252039;19;154994;-58
2022/12/25 01:45:48;;;;;;;;;;;;;;;16.08;56.97;100658.31;7246753;19;152488;-58
2022/12/25 01:48:17;;;;;;;;;;;;;;;16.08;56.83;100661.09;7252949;19;154144;-58
2022/12/25 01:50:46;;;;;;;;;;;;;;;16.06;56.96;100660.56;7256319;19;154698;-58
2022/12/25 01:53:13;;;;;;;;;;;;;;;16.05;57.22;100667.25;7248823;19;154258;-58
2022/12/25 01:55:41;;;;;;;;;;;;;;;16.05;57.39;100678.41;7252297;19;154303;-58
2022/12/25 01:58:08;;;;;;;;;;;;;;;16.05;57.07;100667.25;7246027;19;153906;-58
2022/12/25 02:00:35;;;;;;;;;;;;;;;16.04;56.95;100673.94;7250229;19;154739;-58
2022/12/25 02:03:02;;;;;;;;;;;;;;;16.05;57.14;100675.63;7257387;19;153479;-58
2022/12/25 02:05:31;;;;;;;;;;;;;;;16.05;57.11;100674.78;7253545;19;153808;-57
2022/12/25 02:08:00;;;;;;;;;;;;;;;16.03;57.42;100663.94;7251837;19;153552;-58
2022/12/25 02:10:27;;;;;;;;;;;;;;;16.04;57.09;100671.16;7256719;19;154127;-58
2022/12/25 02:12:54;;;;;;;;;;;;;;;16.01;57.18;100668.94;7261271;19;155214;-58
2022/12/25 02:15:24;;;;;;;;;;;;;;;16.03;57.34;100667.53;7254673;19;153099;-58
2022/12/25 02:17:51;;;;;;;;;;;;;;;16.02;57.29;100670.63;7256289;19;154260;-58
2022/12/25 02:20:21;;;;;;;;;;;;;;;16.02;56.99;100670.63;7255146;19;154002;-58
2022/12/25 02:22:51;;;;;;;;;;;;;;;16.02;57.30;100679.81;7256153;19;153043;-58
2022/12/25 02:25:19;;;;;;;;;;;;;;;16.02;57.28;100684.56;7255070;19;153076;-58
2022/12/25 02:27:46;;;;;;;;;;;;;;;16.02;57.28;100695.72;7255392;19;153213;-58
2022/12/25 02:30:13;;;;;;;;;;;;;;;16.01;57.28;100686.50;7253934;19;154132;-58
2022/12/25 02:32:40;;;;;;;;;;;;;;;16.02;57.13;100684.56;7252447;19;154045;-58
2022/12/25 02:35:10;;;;;;;;;;;;;;;16.02;57.21;100698.50;7261167;19;154796;-58
2022/12/25 02:37:40;;;;;;;;;;;;;;;16.01;57.25;100680.94;7252388;19;155456;-58
2022/12/25 02:40:10;;;;;;;;;;;;;;;16.01;57.16;100678.16;7255800;19;154704;-58
2022/12/25 03:07:56;;;;;;;;;;;;;;;15.99;57.25;100657.25;7254128;19;153874;-58
2022/12/25 03:12:59;;;;;;;;;;;;;;;15.99;57.60;100662.81;7247305;19;154156;-58
2022/12/25 03:17:58;;;;;;;;;;;;;;;15.98;57.52;100661.19;7259967;19;156064;-58
2022/12/25 03:27:57;;;;;;;;;;;;;;;15.97;57.28;100648.34;7252914;19;153319;-58
2022/12/25 03:33:10;;;;;;;;;;;;;;;15.97;57.48;100638.03;7249116;19;155687;-58
2022/12/25 03:42:15;;;;;;;;;;;;;;;15.95;57.29;100619.94;7261555;19;153699;-58
2022/12/25 04:36:36;;;;;;;;;;;;;;;15.93;57.71;100608.25;7248772;19;153549;-58
2022/12/25 04:39:02;;;;;;;;;;;;;;;15.92;57.88;100606.59;7252249;19;153706;-58
2022/12/25 04:41:29;;;;;;;;;;;;;;;15.91;57.66;100608.53;7251217;19;153996;-58
2022/12/25 04:43:56;;;;;;;;;;;;;;;15.92;57.57;100598.22;7252957;19;154098;-58
2022/12/25 04:46:23;;;;;;;;;;;;;;;15.91;57.57;100600.19;7248226;19;153705;-58
2022/12/25 04:48:50;;;;;;;;;;;;;;;15.92;57.97;100604.63;7257622;19;154129;-58
2022/12/25 04:51:18;;;;;;;;;;;;;;;15.91;57.68;100589.03;7249512;19;153508;-58
2022/12/25 04:53:46;;;;;;;;;;;;;;;15.89;57.50;100593.25;7245513;19;154598;-58
2022/12/25 04:56:13;;;;;;;;;;;;;;;15.90;57.86;100600.44;7251818;19;151901;-58
2022/12/25 04:58:41;;;;;;;;;;;;;;;15.90;57.59;100606.84;7250980;19;154582;-58
2022/12/25 05:01:08;;;;;;;;;;;;;;;15.90;58.01;100601.28;7248206;19;153805;-58
2022/12/25 05:03:35;;;;;;;;;;;;;;;15.90;57.80;100595.72;7252342;19;153671;-58
2022/12/25 05:06:03;;;;;;;;;;;;;;;15.91;57.99;100593.78;7247133;19;153475;-58
2022/12/25 05:08:31;;;;;;;;;;;;;;;15.90;57.71;100592.94;7253188;19;153949;-57
2022/12/25 05:10:58;;;;;;;;;;;;;;;15.90;57.67;100587.34;7252042;19;152867;-58
2022/12/25 05:13:25;;;;;;;;;;;;;;;15.91;57.69;100599.34;7247704;19;154817;-58
2022/12/25 05:15:52;;;;;;;;;;;;;;;15.89;57.50;100596.88;7251679;19;154931;-58
2022/12/25 05:18:19;;;;;;;;;;;;;;;15.88;57.96;100591.56;7250928;19;153317;-58
2022/12/25 05:20:51;;;;;;;;;;;;;;;15.89;57.93;100590.44;7248917;19;153926;-58
2022/12/25 05:23:18;;;;;;;;;;;;;;;15.87;58.10;100587.94;7247799;19;153173;-58
2022/12/25 05:25:45;;;;;;;;;;;;;;;15.89;57.71;100593.25;7250141;19;155190;-58
2022/12/25 05:28:12;;;;;;;;;;;;;;;15.89;57.90;100607.16;7248539;19;154972;-58
2022/12/25 05:30:39;;;;;;;;;;;;;;;15.88;57.72;100613.84;7256413;19;153022;-58
2022/12/25 05:33:06;;;;;;;;;;;;;;;15.88;57.87;100620.25;7247209;19;154165;-58
2022/12/25 05:35:35;;;;;;;;;;;;;;;15.88;57.70;100608.28;7247704;19;153970;-58
2022/12/25 05:38:02;;;;;;;;;;;;;;;15.87;57.86;100609.38;7249673;19;155033;-58
2022/12/25 05:40:29;;;;;;;;;;;;;;;15.87;58.09;100609.38;7250490;19;154396;-58
2022/12/25 05:42:56;;;;;;;;;;;;;;;15.88;57.97;100600.75;7250865;19;155202;-58
2022/12/25 05:45:22;;;;;;;;;;;;;;;15.88;58.02;100597.13;7250116;19;153071;-58
2022/12/25 05:47:49;;;;;;;;;;;;;;;15.86;58.15;100591.84;7247843;19;153644;-58
2022/12/25 05:50:16;;;;;;;;;;;;;;;15.88;57.72;100588.78;7245341;19;152865;-58
2022/12/25 05:52:43;;;;;;;;;;;;;;;15.87;57.68;100579.59;7253938;19;154114;-58
2022/12/25 05:55:10;;;;;;;;;;;;;;;15.87;58.13;100578.75;7248225;19;152994;-58
2022/12/25 05:57:37;;;;;;;;;;;;;;;15.86;57.98;100575.13;7249758;19;155217;-58
2022/12/25 06:00:04;;;;;;;;;;;;;;;15.87;57.86;100576.81;7247525;19;155125;-58
2022/12/25 06:02:31;;;;;;;;;;;;;;;15.87;57.93;100570.38;7248198;19;154110;-58
2022/12/25 06:04:58;;;;;;;;;;;;;;;15.87;57.84;100570.38;7249625;19;154619;-58
2022/12/25 06:07:25;;;;;;;;;;;;;;;15.88;58.03;100558.13;7248350;19;154020;-58
2022/12/25 06:09:52;;;;;;;;;;;;;;;15.88;57.86;100560.91;7247970;19;154369;-58
2022/12/25 06:12:19;;;;;;;;;;;;;;;15.87;58.06;100551.72;7250613;19;153792;-58
2022/12/25 06:14:46;;;;;;;;;;;;;;;15.86;57.84;100544.47;7255003;19;153121;-58
2022/12/25 06:17:12;;;;;;;;;;;;;;;15.87;58.09;100550.91;7250254;19;154080;-58
2022/12/25 06:19:41;;;;;;;;;;;;;;;15.86;58.19;100557.56;7248536;19;154439;-58
2022/12/25 06:22:07;;;;;;;;;;;;;;;15.86;57.90;100546.44;7245449;19;153377;-58
2022/12/25 06:24:34;;;;;;;;;;;;;;;15.86;58.05;100543.66;7250772;19;153878;-58
2022/12/25 06:27:01;;;;;;;;;;;;;;;15.85;57.88;100540.03;7250553;19;154005;-58
2022/12/25 06:29:28;;;;;;;;;;;;;;;15.85;58.12;100553.94;7248734;19;153444;-58
2022/12/25 06:31:56;;;;;;;;;;;;;;;15.85;57.96;100550.38;7247034;19;154465;-58
2022/12/25 06:34:23;;;;;;;;;;;;;;;15.85;57.94;100550.38;7245783;19;157700;-58
2022/12/25 06:36:50;;;;;;;;;;;;;;;15.86;58.04;100547.28;7252907;19;153716;-58
2022/12/25 06:39:16;;;;;;;;;;;;;;;15.85;58.06;100550.38;7248712;19;154011;-58
2022/12/25 06:41:43;;;;;;;;;;;;;;;15.84;58.12;100546.75;7246560;19;153361;-57
2022/12/25 06:44:10;;;;;;;;;;;;;;;15.85;58.18;100544.78;7248633;19;154482;-57
2022/12/25 06:46:37;;;;;;;;;;;;;;;15.85;58.12;100547.56;7247312;19;154268;-57
2022/12/25 06:49:04;;;;;;;;;;;;;;;15.85;58.26;100550.38;7252256;19;153626;-57
2022/12/25 06:51:31;;;;;;;;;;;;;;;15.83;58.24;100545.06;7251862;19;153519;-57
2022/12/25 06:53:58;;;;;;;;;;;;;;;15.85;58.24;100544.78;7250952;19;153831;-57
2022/12/25 06:56:26;;;;;;;;;;;;;;;15.85;57.98;100547.56;7253790;19;153058;-57
2022/12/25 06:58:54;;;;;;;;;;;;;;;15.83;58.12;100536.72;7258474;19;153078;-57
2022/12/25 07:01:24;;;;;;;;;;;;;;;15.84;57.87;100538.38;7253207;19;153525;-57
2022/12/25 07:03:53;;;;;;;;;;;;;;;15.85;57.94;100528.06;7254735;19;153646;-56
2022/12/25 07:06:20;;;;;;;;;;;;;;;15.85;58.01;100536.44;7251610;19;154891;-57
2022/12/25 07:08:47;;;;;;;;;;;;;;;15.84;57.99;100527.25;7253220;19;153770;-57
2022/12/25 07:11:14;;;;;;;;;;;;;;;15.84;58.08;100521.66;7254345;19;153885;-57
2022/12/25 07:13:41;;;;;;;;;;;;;;;15.84;58.12;100523.63;7250087;19;155297;-57
2022/12/25 07:16:09;;;;;;;;;;;;;;;15.82;57.97;100529.47;7255165;19;153205;-57
2022/12/25 07:18:36;;;;;;;;;;;;;;;15.83;58.31;100530.31;7259943;19;154715;-57
2022/12/25 07:21:05;;;;;;;;;;;;;;;15.82;58.37;100537.81;7252524;19;152736;-57
2022/12/25 07:23:32;;;;;;;;;;;;;;;15.83;57.93;100531.16;7253576;19;153105;-57
2022/12/25 07:25:59;;;;;;;;;;;;;;;15.83;58.25;100533.09;7254736;19;154081;-56
2022/12/25 07:28:26;;;;;;;;;;;;;;;15.81;58.11;100538.94;7255423;19;154542;-57
2022/12/25 07:30:53;;;;;;;;;;;;;;;15.84;58.49;100551.47;7254876;19;153616;-56
2022/12/25 07:33:20;;;;;;;;;;;;;;;15.83;58.43;100555.38;7252837;19;155526;-56
2022/12/25 07:35:47;;;;;;;;;;;;;;;15.82;58.39;100562.91;7254000;19;151898;-57
2022/12/25 07:38:14;;;;;;;;;;;;;;;15.82;58.50;100562.06;7252233;19;155285;-57
2022/12/25 07:40:43;;;;;;;;;;;;;;;15.82;58.16;100562.06;7259310;19;153963;-57
2022/12/25 07:43:11;;;;;;;;;;;;;;;15.82;58.42;100554.53;7254527;19;153668;-57
2022/12/25 07:45:38;;;;;;;;;;;;;;;15.82;58.32;100564.84;7250229;19;156373;-57
2022/12/25 07:48:05;;;;;;;;;;;;;;;15.80;58.27;100542.03;7252207;19;153162;-57
2022/12/25 07:50:38;;;;;;;;;;;;;;;15.81;58.48;100543.66;7253245;19;153655;-57
2022/12/25 07:53:05;;;;;;;;;;;;;;;15.82;58.24;100537.00;7248612;19;155937;-57
2022/12/25 07:55:32;;;;;;;;;;;;;;;15.81;58.24;100533.38;7251234;19;152996;-57
2022/12/25 07:57:59;;;;;;;;;;;;;;;15.82;58.50;100535.03;7252046;19;154604;-57
2022/12/25 08:00:30;;;;;;;;;;;;;;;15.81;58.13;100544.50;7249594;19;155342;-57
2022/12/25 08:02:57;;;;;;;;;;;;;;;15.81;58.41;100541.72;7261560;19;153945;-57
2022/12/25 08:05:24;;;;;;;;;;;;;;;15.82;58.22;100539.78;7248166;19;155180;-57
2022/12/25 08:07:52;;;;;;;;;;;;;;;15.82;58.36;100548.13;7250258;19;153703;-57
2022/12/25 08:10:23;;;;;;;;;;;;;;;15.82;58.25;100531.41;7253014;19;154048;-57
2022/12/25 08:12:50;;;;;;;;;;;;;;;15.81;58.27;100513.03;7252381;19;152815;-57
2022/12/25 08:15:17;;;;;;;;;;;;;;;15.83;58.06;100508.03;7247337;19;153547;-56
2022/12/25 08:17:45;;;;;;;;;;;;;;;15.82;58.23;100490.47;7254209;19;154446;-57
2022/12/25 08:20:12;;;;;;;;;;;;;;;15.83;58.23;100485.75;7246813;19;152727;-57
2022/12/25 08:22:38;;;;;;;;;;;;;;;15.81;58.23;100487.97;7253037;19;153288;-57
2022/12/25 08:25:06;;;;;;;;;;;;;;;15.82;58.33;100486.84;7258153;19;154154;-57
2022/12/25 08:27:33;;;;;;;;;;;;;;;15.82;58.12;100490.47;7252847;19;154139;-57
2022/12/25 08:30:00;;;;;;;;;;;;;;;15.82;58.22;100498.84;7249418;19;155070;-56
2022/12/25 08:32:26;;;;;;;;;;;;;;;15.80;58.17;100489.09;7252967;19;154434;-56
2022/12/25 08:34:53;;;;;;;;;;;;;;;15.81;58.24;100487.97;7250708;19;152194;-57
2022/12/25 08:37:20;;;;;;;;;;;;;;;15.80;58.34;100483.53;7250228;19;153551;-57
2022/12/25 08:39:47;;;;;;;;;;;;;;;15.81;58.54;100490.75;7250865;19;154769;-57
2022/12/25 08:42:14;;;;;;;;;;;;;;;15.80;58.56;100503.88;7252939;19;152791;-57
2022/12/25 08:44:41;;;;;;;;;;;;;;;15.79;58.38;100506.94;7252736;19;153307;-57
2022/12/25 08:47:07;;;;;;;;;;;;;;;15.80;58.34;100505.81;7257777;19;154595;-57
2022/12/25 08:49:35;;;;;;;;;;;;;;;15.80;58.38;100522.53;7251713;19;153439;-56
2022/12/25 08:52:02;;;;;;;;;;;;;;;15.80;58.31;100523.38;7247498;19;153848;-57
2022/12/25 08:54:31;;;;;;;;;;;;;;;15.81;58.42;100532.53;7250078;19;154093;-56
2022/12/25 08:56:58;;;;;;;;;;;;;;;15.81;58.27;100538.09;7251548;19;153490;-57
2022/12/25 08:59:28;;;;;;;;;;;;;;;15.82;58.43;100537.00;7250277;19;154501;-57
2022/12/25 09:01:55;;;;;;;;;;;;;;;15.81;58.26;100538.94;7250922;19;153945;-57
2022/12/25 09:04:22;;;;;;;;;;;;;;;15.81;58.27;100538.09;7251443;19;153472;-57
2022/12/25 09:06:49;;;;;;;;;;;;;;;15.82;58.54;100528.63;7246740;19;153933;-57
2022/12/25 09:09:16;;;;;;;;;;;;;;;15.80;58.11;100528.94;7255141;19;152843;-57
2022/12/25 09:11:43;;;;;;;;;;;;;;;15.80;58.10;100542.88;7246915;19;153620;-57
2022/12/25 09:14:12;;;;;;;;;;;;;;;15.80;58.34;100550.38;7251436;19;154207;-57
2022/12/25 09:16:39;;;;;;;;;;;;;;;15.80;58.30;100542.03;7249707;19;154089;-57
2022/12/25 09:19:06;;;;;;;;;;;;;;;15.82;58.46;100546.19;7249098;19;156686;-57
2022/12/25 09:21:35;;;;;;;;;;;;;;;15.81;58.54;100549.25;7248094;19;153686;-57
2022/12/25 09:24:03;;;;;;;;;;;;;;;15.80;58.24;100547.59;7247709;19;154369;-57
2022/12/25 09:26:30;;;;;;;;;;;;;;;15.80;58.43;100554.00;7246397;19;154163;-57
2022/12/25 09:28:57;;;;;;;;;;;;;;;15.80;58.23;100550.38;7256185;19;153386;-57
2022/12/25 09:31:24;;;;;;;;;;;;;;;15.80;58.66;100567.09;7249886;19;152778;-56
2022/12/25 09:33:54;;;;;;;;;;;;;;;15.80;58.37;100570.72;7251769;19;153885;-57
2022/12/25 09:36:22;;;;;;;;;;;;;;;15.81;58.43;100564.00;7248501;19;153909;-57
2022/12/25 09:38:49;;;;;;;;;;;;;;;15.81;58.32;100568.75;7247617;19;154059;-57
2022/12/25 09:41:17;;;;;;;;;;;;;;;15.82;58.46;100571.25;7250309;19;152850;-57
2022/12/25 09:43:48;;;;;;;;;;;;;;;15.81;58.36;100561.22;7248928;19;152948;-57
2022/12/25 09:46:19;;;;;;;;;;;;;;;15.81;58.13;100566.78;7246373;19;154204;-57
2022/12/25 09:48:51;;;;;;;;;;;;;;;15.82;58.40;100570.41;7249740;19;152776;-57
2022/12/25 09:51:18;;;;;;;;;;;;;;;15.81;58.48;100571.53;7252463;19;154452;-57
2022/12/25 09:53:50;;;;;;;;;;;;;;;15.80;58.34;100569.88;7249639;19;153732;-57
2022/12/25 09:56:20;;;;;;;;;;;;;;;15.82;58.38;100582.38;7247682;19;152614;-57
2022/12/25 09:58:47;;;;;;;;;;;;;;;15.81;58.43;100585.44;7249808;19;154859;-57
2022/12/25 10:01:14;;;;;;;;;;;;;;;15.82;58.49;100584.34;7250494;19;153341;-57
2022/12/25 10:03:50;;;;;;;;;;;;;;;15.82;58.29;100592.69;7248182;19;153653;-57
2022/12/25 10:06:20;;;;;;;;;;;;;;;15.81;58.36;100597.44;7246698;19;153699;-57
2022/12/25 10:08:50;;;;;;;;;;;;;;;15.81;58.65;100591.03;7247702;19;153240;-57
2022/12/25 10:11:20;;;;;;;;;;;;;;;15.81;58.42;100594.66;7249981;19;153947;-57
2022/12/25 10:13:47;;;;;;;;;;;;;;;15.82;58.20;100590.75;7256030;19;154571;-57
2022/12/25 10:16:20;;;;;;;;;;;;;;;15.83;58.51;100586.00;7251541;19;153924;-57
2022/12/25 10:18:47;;;;;;;;;;;;;;;15.83;58.46;100588.78;7246500;19;154192;-57
2022/12/25 10:21:17;;;;;;;;;;;;;;;15.81;58.18;100589.06;7246848;19;152929;-56
2022/12/25 10:23:47;;;;;;;;;;;;;;;15.82;58.55;100587.13;7255013;19;154235;-58
2022/12/25 10:26:15;;;;;;;;;;;;;;;15.81;58.59;100583.50;7255360;19;153207;-58
2022/12/25 10:28:44;;;;;;;;;;;;;;;15.84;58.37;100590.47;7253243;19;154387;-58
2022/12/25 10:31:14;;;;;;;;;;;;;;;15.83;58.13;100586.84;7253966;19;153397;-58
2022/12/25 10:33:41;;;;;;;;;;;;;;;15.85;58.38;100578.22;7254173;19;155456;-56
2022/12/25 10:36:08;;;;;;;;;;;;;;;15.82;58.31;100574.03;7258224;19;154100;-58
2022/12/25 10:38:36;;;;;;;;;;;;;;;15.82;58.33;100570.41;7250659;19;154223;-58
2022/12/25 10:41:06;;;;;;;;;;;;;;;15.83;58.62;100572.91;7255104;19;153043;-58
2022/12/25 10:43:37;;;;;;;;;;;;;;;15.83;58.16;100569.31;7256855;19;153992;-58
2022/12/25 10:46:07;;;;;;;;;;;;;;;15.83;58.63;100572.09;7252894;19;153392;-58
2022/12/25 10:48:34;;;;;;;;;;;;;;;15.83;58.50;100572.91;7255895;19;153655;-58
2022/12/25 10:51:01;;;;;;;;;;;;;;;15.84;58.48;100573.75;7251680;19;154286;-58
2022/12/25 10:53:28;;;;;;;;;;;;;;;15.82;58.26;100568.47;7254510;19;154442;-58
2022/12/25 10:55:56;;;;;;;;;;;;;;;15.83;58.40;100564.56;7254342;19;154193;-58
2022/12/25 10:58:24;;;;;;;;;;;;;;;15.84;58.29;100562.63;7263648;19;153978;-58
2022/12/25 11:00:52;;;;;;;;;;;;;;;15.83;58.57;100556.22;7255079;19;153389;-58
2022/12/25 11:03:21;;;;;;;;;;;;;;;15.83;58.37;100559.00;7256304;19;153921;-58
2022/12/25 11:05:50;;;;;;;;;;;;;;;15.82;58.65;100557.31;7251502;19;155513;-58
2022/12/25 11:08:20;;;;;;;;;;;;;;;15.83;58.32;100555.38;7252975;19;153148;-57
2022/12/25 11:10:49;;;;;;;;;;;;;;;15.84;58.42;100546.75;7252286;19;153791;-57
2022/12/25 11:13:18;;;;;;;;;;;;;;;15.84;58.46;100545.91;7254024;19;156216;-57
2022/12/25 11:15:47;;;;;;;;;;;;;;;15.84;58.21;100541.16;7253595;19;154515;-57
2022/12/25 11:18:16;;;;;;;;;;;;;;;15.84;58.65;100538.38;7255569;19;154469;-57
2022/12/25 11:20:46;;;;;;;;;;;;;;;15.84;58.65;100541.16;7260505;19;153364;-57
2022/12/25 11:23:16;;;;;;;;;;;;;;;15.83;58.42;100544.22;7251956;19;154417;-57
2022/12/25 11:25:43;;;;;;;;;;;;;;;15.83;58.47;100542.28;7253086;19;154766;-57
2022/12/25 11:28:12;;;;;;;;;;;;;;;15.85;58.44;100530.88;7254025;19;153522;-57
2022/12/25 11:30:39;;;;;;;;;;;;;;;15.84;58.39;100534.75;7254478;19;153142;-57
2022/12/25 11:33:10;;;;;;;;;;;;;;;15.85;58.68;100533.66;7249228;19;153798;-57
2022/12/25 11:35:44;;;;;;;;;;;;;;;15.84;58.67;100529.19;7250065;19;155112;-57
2022/12/25 11:38:11;;;;;;;;;;;;;;;15.84;58.62;100527.25;7251465;19;153569;-57
2022/12/25 11:40:41;;;;;;;;;;;;;;;15.84;58.42;100532.81;7259972;19;155222;-57
2022/12/25 11:43:11;;;;;;;;;;;;;;;15.84;58.48;100526.41;7256737;19;155267;-57
2022/12/25 11:45:44;;;;;;;;;;;;;;;15.84;58.29;100534.75;7251053;19;154108;-57
2022/12/25 11:48:14;;;;;;;;;;;;;;;15.85;58.47;100530.88;7253385;19;153268;-57
2022/12/25 11:50:44;;;;;;;;;;;;;;;15.84;58.45;100534.75;7250424;19;152722;-57
2022/12/25 11:53:14;;;;;;;;;;;;;;;15.84;58.54;100532.81;7249671;19;154035;-57
2022/12/25 11:55:45;;;;;;;;;;;;;;;15.84;58.62;100521.66;7252332;19;153163;-57
2022/12/25 11:58:15;;;;;;;;;;;;;;;15.84;58.65;100523.63;7253801;19;153974;-57
2022/12/25 12:00:44;;;;;;;;;;;;;;;15.86;58.72;100513.00;7250062;19;153381;-57
2022/12/25 12:03:14;;;;;;;;;;;;;;;15.85;58.38;100503.81;7258393;19;152721;-57
2022/12/25 12:05:44;;;;;;;;;;;;;;;15.86;58.23;100504.66;7247721;19;155207;-57
2022/12/25 12:08:12;;;;;;;;;;;;;;;15.86;58.27;100508.28;7249223;19;152336;-57
2022/12/25 12:10:44;;;;;;;;;;;;;;;15.86;58.19;100497.13;7254278;19;153694;-57
2022/12/25 12:13:12;;;;;;;;;;;;;;;15.86;58.61;100499.91;7251722;19;153841;-57
2022/12/25 12:15:39;;;;;;;;;;;;;;;15.86;58.20;100493.50;7252807;19;154197;-57
2022/12/25 12:18:08;;;;;;;;;;;;;;;15.87;58.50;100497.97;7253094;19;154346;-57
2022/12/25 12:20:36;;;;;;;;;;;;;;;15.86;58.31;100493.50;7248907;19;153748;-57
2022/12/25 12:23:09;;;;;;;;;;;;;;;15.87;58.75;100495.19;7250396;19;153288;-57
2022/12/25 12:25:38;;;;;;;;;;;;;;;15.87;58.53;100492.41;7259166;19;153786;-57
2022/12/25 12:28:09;;;;;;;;;;;;;;;15.86;58.29;100494.34;7250678;19;153531;-56
2022/12/25 12:30:36;;;;;;;;;;;;;;;15.87;58.63;100497.97;7252238;19;155214;-57
2022/12/25 12:33:05;;;;;;;;;;;;;;;15.86;58.37;100487.94;7253160;19;153817;-57
2022/12/25 12:35:34;;;;;;;;;;;;;;;15.88;58.79;100488.50;7247212;19;154479;-57
2022/12/25 12:38:05;;;;;;;;;;;;;;;15.87;58.77;100489.59;7247543;19;154205;-56
2022/12/25 12:40:35;;;;;;;;;;;;;;;15.87;58.55;100490.44;7250458;19;153679;-57
2022/12/25 12:43:03;;;;;;;;;;;;;;;15.88;58.85;100496.84;7250475;19;153624;-57
2022/12/25 12:45:33;;;;;;;;;;;;;;;15.87;58.54;100497.97;7251658;19;154544;-57
2022/12/25 12:48:01;;;;;;;;;;;;;;;15.88;58.52;100491.28;7255589;19;154894;-57
2022/12/25 12:50:31;;;;;;;;;;;;;;;15.88;58.33;100492.13;7248873;19;153866;-57
2022/12/25 12:52:58;;;;;;;;;;;;;;;15.87;58.50;100493.22;7249837;19;154350;-56
2022/12/25 12:55:28;;;;;;;;;;;;;;;15.88;58.55;100491.28;7251100;19;153220;-57
2022/12/25 12:57:57;;;;;;;;;;;;;;;15.88;58.66;100488.50;7248926;19;154640;-56
2022/12/25 13:00:28;;;;;;;;;;;;;;;15.88;58.46;100488.50;7250715;19;154437;-56
2022/12/25 13:02:58;;;;;;;;;;;;;;;15.88;58.52;100496.84;7250936;19;154057;-56
2022/12/25 13:05:28;;;;;;;;;;;;;;;15.89;58.72;100499.38;7250801;19;154097;-56
2022/12/25 13:08:03;;;;;;;;;;;;;;;15.89;58.24;100491.00;7248289;19;154214;-56
2022/12/25 13:10:32;;;;;;;;;;;;;;;15.89;58.65;100492.94;7258710;19;154388;-56
2022/12/25 13:13:00;;;;;;;;;;;;;;;15.88;58.24;100483.75;7248369;19;154886;-56
2022/12/25 13:15:29;;;;;;;;;;;;;;;15.89;58.50;100492.94;7250692;19;154359;-56
2022/12/25 13:18:00;;;;;;;;;;;;;;;15.89;58.38;100487.38;7250814;19;154637;-56
2022/12/25 13:20:35;;;;;;;;;;;;;;;15.87;58.58;100481.25;7248034;19;155965;-56
2022/12/25 13:23:11;;;;;;;;;;;;;;;15.89;58.65;100482.66;7246083;19;153958;-56
2022/12/25 13:25:38;;;;;;;;;;;;;;;15.88;58.51;100472.63;7250232;19;154981;-56
2022/12/25 13:28:05;;;;;;;;;;;;;;;15.89;58.19;100463.16;7247758;19;154510;-56
2022/12/25 13:30:32;;;;;;;;;;;;;;;15.88;58.57;100467.03;7258822;19;153698;-56
2022/12/25 13:32:59;;;;;;;;;;;;;;;15.90;58.58;100478.72;7249690;19;154006;-57
2022/12/25 13:35:26;;;;;;;;;;;;;;;15.89;58.56;100470.66;7249695;19;153043;-57
2022/12/25 13:37:53;;;;;;;;;;;;;;;15.89;58.08;100476.25;7249693;19;153825;-57
2022/12/25 13:40:23;;;;;;;;;;;;;;;15.89;58.03;100474.28;7247125;19;153679;-57
2022/12/25 13:42:54;;;;;;;;;;;;;;;15.90;58.48;100480.66;7247760;19;153160;-56
2022/12/25 13:45:22;;;;;;;;;;;;;;;15.89;58.05;100474.28;7250871;19;154722;-57
2022/12/25 13:47:50;;;;;;;;;;;;;;;15.89;58.26;100471.50;7248418;19;154107;-57
2022/12/25 13:50:21;;;;;;;;;;;;;;;15.90;58.10;100483.44;7247208;19;152430;-57
2022/12/25 13:52:48;;;;;;;;;;;;;;;15.90;58.32;100483.44;7256776;19;154371;-57
2022/12/25 13:55:17;;;;;;;;;;;;;;;15.90;58.17;100491.81;7246726;19;152902;-57
2022/12/25 13:57:48;;;;;;;;;;;;;;;15.90;57.91;100486.22;7255351;19;154656;-57
2022/12/25 14:00:19;;;;;;;;;;;;;;;15.90;58.22;100481.50;7252539;19;154161;-57
2022/12/25 14:02:46;;;;;;;;;;;;;;;15.90;58.24;100486.22;7257008;19;154014;-57
2022/12/25 14:05:16;;;;;;;;;;;;;;;15.90;58.11;100472.31;7254389;19;152443;-57
2022/12/25 14:07:49;;;;;;;;;;;;;;;15.90;58.19;100472.31;7254205;19;154495;-56
2022/12/25 14:10:16;;;;;;;;;;;;;;;15.90;58.07;100480.66;7253731;19;152530;-56
2022/12/25 14:12:43;;;;;;;;;;;;;;;15.91;57.77;100468.41;7257778;19;152939;-56
2022/12/25 14:15:13;;;;;;;;;;;;;;;15.91;57.85;100460.06;7261329;19;154398;-56